Time;durP1;ratioP1;P1;durP2;ratioP2;P2;SDS_P1;SDS_P2;PMS_P1;PMS_P2;Temp;Humidity;BMP_temperature;BMP_pressure;BME280_temperature;BME280_humidity;BME280_pressure;Samples;Min_cycle;Max_cycle;Signal;HPM_P1;HPM_P2
2022/05/22 00:00:36;;;;;;;3.60;1.80;;;;;;99917.02;;;;107813;1271;30729;-27
2022/05/22 00:03:05;;;;;;;4.20;1.80;;;;;;99923.66;;;;107813;1271;28681;-27
2022/05/22 00:05:31;;;;;;;4.40;2.00;;;;;;99927.58;;;;107813;1271;30663;-27
2022/05/22 00:07:58;;;;;;;3.80;1.70;;;;;;99922.39;;;;107826;1271;27363;-29
2022/05/22 00:10:25;;;;;;;3.70;1.60;;;;;;99922.63;;;;107810;1271;28751;-29
2022/05/22 00:12:51;;;;;;;3.20;1.70;;;;;;99923.16;;;;107799;1271;26237;-29
2022/05/22 00:15:18;;;;;;;3.90;1.80;;;;;;99920.36;;;;107830;1271;27961;-29
2022/05/22 00:17:45;;;;;;;3.00;1.40;;;;;;99920.92;;;;107768;1271;28547;-29
2022/05/22 00:20:13;;;;;;;3.80;2.00;;;;;;99921.11;;;;107801;1271;27395;-29
2022/05/22 00:22:41;;;;;;;4.10;2.10;;;;;;99922.86;;;;107812;1271;28765;-29
2022/05/22 00:25:10;;;;;;;3.50;1.80;;;;;;99923.56;;;;107804;1271;30740;-29
2022/05/22 00:27:39;;;;;;;3.30;1.80;;;;;;99921.49;;;;107808;1271;28631;-27
2022/05/22 00:30:09;;;;;;;3.20;1.60;;;;;;99921.45;;;;107816;1271;28666;-29
2022/05/22 00:32:36;;;;;;;3.30;1.70;;;;;;99923.09;;;;107799;1273;28629;-29
2022/05/22 00:35:04;;;;;;;3.60;1.60;;;;;;99921.83;;;;107817;1271;29356;-28
2022/05/22 00:37:31;;;;;;;4.40;2.10;;;;;;99922.80;;;;107841;1271;30904;-29
2022/05/22 00:39:58;;;;;;;3.00;1.50;;;;;;99921.52;;;;107804;1271;28710;-29
2022/05/22 00:42:26;;;;;;;4.40;1.70;;;;;;99924.29;;;;107788;1271;28669;-29
2022/05/22 00:44:53;;;;;;;2.70;1.50;;;;;;99927.94;;;;107806;1272;28704;-29
2022/05/22 00:47:21;;;;;;;3.40;1.50;;;;;;99926.13;;;;107836;1271;28657;-28
2022/05/22 00:49:49;;;;;;;3.60;1.70;;;;;;99922.52;;;;107846;1271;28657;-27
2022/05/22 00:52:35;;;;;;;2.70;1.50;;;;;;99924.66;;;;107801;1271;27783;-29
2022/05/22 00:55:15;;;;;;;2.80;1.70;;;;;;99920.95;;;;107783;1271;30775;-29
2022/05/22 00:57:52;;;;;;;3.90;1.70;;;;;;99920.96;;;;107839;1271;28498;-29
2022/05/22 01:00:23;;;;;;;3.30;1.50;;;;;;99920.22;;;;107778;1271;28774;-29
2022/05/22 01:05:36;;;;;;;2.70;1.50;;;;;;99916.97;;;;107803;1271;28736;-29
2022/05/22 01:08:04;;;;;;;2.90;1.60;;;;;;99916.90;;;;107766;1274;28674;-29
2022/05/22 01:10:38;;;;;;;3.00;1.80;;;;;;99920.98;;;;107885;1271;28623;-29
2022/05/22 01:13:05;;;;;;;3.60;1.50;;;;;;99918.52;;;;107848;1271;28698;-29
2022/05/22 01:15:32;;;;;;;3.70;1.70;;;;;;99920.46;;;;107755;1272;28689;-30
2022/05/22 01:17:59;;;;;;;3.40;1.50;;;;;;99924.41;;;;107850;1271;28704;-29
2022/05/22 01:20:25;;;;;;;3.20;1.40;;;;;;99923.05;;;;107887;1271;28748;-29
2022/05/22 01:22:52;;;;;;;3.60;1.70;;;;;;99925.36;;;;107898;1271;28238;-29
2022/05/22 01:25:19;;;;;;;2.50;1.20;;;;;;99928.02;;;;107796;1274;28674;-29
2022/05/22 01:27:46;;;;;;;2.60;1.40;;;;;;99921.74;;;;107879;1272;28107;-29
2022/05/22 01:30:21;;;;;;;2.80;1.40;;;;;;99923.48;;;;107833;1271;27768;-29
2022/05/22 01:32:49;;;;;;;3.00;1.60;;;;;;99925.50;;;;107820;1271;28070;-30
2022/05/22 01:35:25;;;;;;;3.50;1.60;;;;;;99926.80;;;;107804;1271;26153;-29
2022/05/22 01:37:52;;;;;;;2.60;1.40;;;;;;99929.84;;;;107818;1272;28704;-29
2022/05/22 01:40:19;;;;;;;3.20;1.60;;;;;;99936.48;;;;107804;1271;30723;-29
2022/05/22 01:42:46;;;;;;;4.00;1.60;;;;;;99941.53;;;;107830;1271;28752;-29
2022/05/22 01:45:19;;;;;;;2.80;1.30;;;;;;99940.14;;;;107801;1271;28751;-29
2022/05/22 01:47:46;;;;;;;3.00;1.40;;;;;;99942.42;;;;107795;1271;28685;-29
2022/05/22 01:50:13;;;;;;;3.30;1.40;;;;;;99939.25;;;;107791;1271;29334;-29
2022/05/22 01:52:41;;;;;;;2.90;1.30;;;;;;99937.17;;;;107795;1271;28871;-29
2022/05/22 01:55:10;;;;;;;2.90;1.50;;;;;;99938.39;;;;107717;1271;27669;-29
2022/05/22 01:57:37;;;;;;;2.10;1.30;;;;;;99938.91;;;;107824;1271;28621;-29
2022/05/22 02:00:10;;;;;;;3.70;1.70;;;;;;99942.20;;;;107825;1271;28706;-29
2022/05/22 02:02:36;;;;;;;3.30;1.40;;;;;;99948.27;;;;107775;1271;28413;-29
2022/05/22 02:05:03;;;;;;;2.90;1.50;;;;;;99945.90;;;;107799;1271;27376;-29
2022/05/22 02:10:15;;;;;;;2.50;1.30;;;;;;99952.37;;;;107797;1271;30799;-29
2022/05/22 02:12:42;;;;;;;3.00;1.50;;;;;;99957.10;;;;107801;1271;27437;-29
2022/05/22 02:15:10;;;;;;;2.50;1.30;;;;;;99953.11;;;;107821;1271;30986;-29
2022/05/22 02:17:36;;;;;;;2.40;1.20;;;;;;99953.73;;;;107824;1271;27755;-29
2022/05/22 02:20:04;;;;;;;2.50;1.20;;;;;;99946.56;;;;107848;1271;27404;-29
2022/05/22 02:22:31;;;;;;;3.00;1.40;;;;;;99951.62;;;;107858;1271;27497;-29
2022/05/22 02:24:57;;;;;;;2.60;1.20;;;;;;99948.25;;;;107807;1271;27670;-29
2022/05/22 02:27:24;;;;;;;2.00;1.00;;;;;;99945.16;;;;107790;1271;28054;-29
2022/05/22 02:29:50;;;;;;;2.20;1.10;;;;;;99953.86;;;;107790;1271;27634;-29
2022/05/22 02:32:17;;;;;;;2.20;1.00;;;;;;99951.00;;;;107797;1271;28630;-29
2022/05/22 02:34:44;;;;;;;3.10;1.30;;;;;;99952.46;;;;107771;1271;27658;-29
2022/05/22 02:37:10;;;;;;;2.30;1.20;;;;;;99944.70;;;;107799;1271;28477;-29
2022/05/22 02:39:37;;;;;;;2.40;1.20;;;;;;99941.35;;;;107833;1271;27144;-29
2022/05/22 02:42:05;;;;;;;2.50;1.20;;;;;;99944.70;;;;107769;1271;27505;-29
2022/05/22 02:44:33;;;;;;;2.20;1.20;;;;;;99950.27;;;;107852;1271;27573;-29
2022/05/22 02:46:59;;;;;;;2.10;1.10;;;;;;99951.24;;;;107814;1271;28675;-29
2022/05/22 02:49:26;;;;;;;2.60;1.30;;;;;;99953.08;;;;107827;1271;30508;-29
2022/05/22 02:51:52;;;;;;;3.70;1.20;;;;;;99954.35;;;;107838;1271;28719;-29
2022/05/22 02:54:21;;;;;;;3.70;1.30;;;;;;99956.80;;;;107798;1271;30850;-29
2022/05/22 02:56:47;;;;;;;2.30;1.00;;;;;;99952.96;;;;107805;1271;27363;-29
2022/05/22 02:59:14;;;;;;;2.30;1.00;;;;;;99953.54;;;;107810;1271;31055;-29
2022/05/22 03:01:40;;;;;;;2.40;1.30;;;;;;99953.30;;;;107817;1271;28642;-29
2022/05/22 03:04:07;;;;;;;2.60;1.20;;;;;;99958.39;;;;107811;1271;28717;-29
2022/05/22 03:06:39;;;;;;;2.40;1.20;;;;;;99959.22;;;;107767;1271;29403;-29
2022/05/22 03:09:10;;;;;;;1.90;1.00;;;;;;99959.25;;;;107786;1271;28645;-29
2022/05/22 03:11:38;;;;;;;2.70;1.30;;;;;;99962.06;;;;107819;1271;28417;-29
2022/05/22 03:14:05;;;;;;;2.30;1.20;;;;;;99958.23;;;;107848;1271;27403;-29
2022/05/22 03:16:32;;;;;;;2.00;1.10;;;;;;99961.65;;;;107799;1271;28793;-29
2022/05/22 03:18:59;;;;;;;3.20;1.40;;;;;;99959.34;;;;107804;1271;28656;-29
2022/05/22 03:21:27;;;;;;;3.00;1.40;;;;;;99962.29;;;;107811;1271;28634;-29
2022/05/22 03:23:54;;;;;;;2.40;1.20;;;;;;99963.66;;;;107773;1271;28609;-29
2022/05/22 03:26:21;;;;;;;3.10;1.40;;;;;;99962.33;;;;107810;1271;28651;-29
2022/05/22 03:28:48;;;;;;;2.60;1.00;;;;;;99964.15;;;;107816;1271;28704;-29
2022/05/22 03:31:16;;;;;;;2.60;1.20;;;;;;99960.13;;;;107797;1271;27657;-29
2022/05/22 03:33:43;;;;;;;2.20;1.20;;;;;;99958.58;;;;107798;1271;28722;-29
2022/05/22 03:36:10;;;;;;;3.00;1.30;;;;;;99956.86;;;;107797;1271;30666;-29
2022/05/22 03:38:37;;;;;;;2.60;1.20;;;;;;99958.14;;;;107809;1271;28619;-29
2022/05/22 03:41:04;;;;;;;2.90;1.40;;;;;;99957.08;;;;107802;1271;30839;-29
2022/05/22 03:43:30;;;;;;;2.50;1.30;;;;;;99959.89;;;;107795;1271;26399;-29
2022/05/22 03:45:57;;;;;;;2.80;1.30;;;;;;99957.09;;;;107792;1271;28661;-29
2022/05/22 03:48:23;;;;;;;2.50;1.30;;;;;;99956.78;;;;107786;1271;28750;-29
2022/05/22 03:50:50;;;;;;;2.40;1.10;;;;;;99958.19;;;;107798;1271;26170;-29
2022/05/22 03:53:17;;;;;;;2.10;1.10;;;;;;99960.17;;;;107833;1271;28640;-29
2022/05/22 03:55:43;;;;;;;2.50;1.30;;;;;;99960.13;;;;107786;1271;27787;-29
2022/05/22 03:58:11;;;;;;;2.50;1.20;;;;;;99959.86;;;;107793;1271;28522;-29
2022/05/22 04:00:37;;;;;;;2.70;1.20;;;;;;99963.56;;;;107824;1271;28467;-27
2022/05/22 04:03:04;;;;;;;2.70;1.30;;;;;;99963.91;;;;107812;1271;26218;-29
2022/05/22 04:05:31;;;;;;;2.70;1.20;;;;;;99960.13;;;;107800;1271;28599;-29
2022/05/22 04:07:57;;;;;;;2.00;1.10;;;;;;99962.25;;;;107764;1273;28683;-29
2022/05/22 04:10:24;;;;;;;3.10;1.20;;;;;;99959.84;;;;107786;1271;30467;-29
2022/05/22 04:12:52;;;;;;;2.10;1.30;;;;;;99962.86;;;;107813;1271;27595;-29
2022/05/22 04:15:20;;;;;;;2.30;1.30;;;;;;99963.05;;;;107847;1271;27912;-29
2022/05/22 04:17:48;;;;;;;2.70;1.20;;;;;;99966.76;;;;107842;1271;28797;-29
2022/05/22 04:20:18;;;;;;;2.60;1.30;;;;;;99964.90;;;;107832;1271;28682;-29
2022/05/22 04:25:30;;;;;;;2.20;1.20;;;;;;99964.59;;;;107782;1271;28742;-29
2022/05/22 04:27:57;;;;;;;2.10;1.30;;;;;;99964.45;;;;107715;1274;30644;-29
2022/05/22 04:30:24;;;;;;;3.20;1.60;;;;;;99964.98;;;;107801;1271;27519;-29
2022/05/22 04:32:52;;;;;;;3.30;1.40;;;;;;99966.66;;;;107790;1271;27858;-27
2022/05/22 04:35:20;;;;;;;2.90;1.40;;;;;;99970.81;;;;107820;1271;28699;-29
2022/05/22 04:37:47;;;;;;;2.20;1.20;;;;;;99967.80;;;;107785;1271;28626;-28
2022/05/22 04:40:14;;;;;;;3.00;1.40;;;;;;99962.98;;;;107803;1273;30702;-28
2022/05/22 04:42:41;;;;;;;2.50;1.40;;;;;;99962.05;;;;107788;1273;28821;-28
2022/05/22 04:45:10;;;;;;;2.60;1.30;;;;;;99961.37;;;;107808;1271;28696;-28
2022/05/22 04:47:41;;;;;;;2.60;1.20;;;;;;99959.03;;;;107818;1271;30683;-28
2022/05/22 04:50:10;;;;;;;3.00;1.60;;;;;;99960.97;;;;107801;1271;28712;-30
2022/05/22 04:52:36;;;;;;;2.30;1.20;;;;;;99961.05;;;;107845;1271;26098;-29
2022/05/22 04:55:05;;;;;;;3.10;1.50;;;;;;99962.45;;;;107791;1271;29346;-29
2022/05/22 04:57:31;;;;;;;3.20;1.60;;;;;;99959.52;;;;107831;1273;27431;-29
2022/05/22 04:59:58;;;;;;;3.40;1.40;;;;;;99962.23;;;;107774;1271;28648;-29
2022/05/22 05:02:25;;;;;;;2.80;1.30;;;;;;99960.34;;;;107781;1271;28711;-28
2022/05/22 05:04:54;;;;;;;2.70;1.50;;;;;;99956.68;;;;107788;1271;26169;-28
2022/05/22 05:07:21;;;;;;;3.90;1.50;;;;;;99963.63;;;;107860;1271;29039;-28
2022/05/22 05:09:49;;;;;;;2.80;1.50;;;;;;99964.84;;;;107805;1271;26638;-28
2022/05/22 05:12:17;;;;;;;2.40;1.40;;;;;;99968.39;;;;107848;1271;30227;-27
2022/05/22 05:14:45;;;;;;;3.00;1.70;;;;;;99968.55;;;;107823;1271;30908;-30
2022/05/22 05:17:16;;;;;;;2.90;1.40;;;;;;99970.36;;;;107871;1271;28665;-30
2022/05/22 05:19:44;;;;;;;2.80;1.40;;;;;;99977.26;;;;107824;1271;28706;-29
2022/05/22 05:22:11;;;;;;;2.70;1.50;;;;;;99973.08;;;;107838;1271;28591;-29
2022/05/22 05:24:38;;;;;;;3.30;1.40;;;;;;99978.23;;;;107785;1271;27737;-29
2022/05/22 05:27:05;;;;;;;2.80;1.50;;;;;;99973.52;;;;107669;1271;216001;-29
2022/05/22 05:29:32;;;;;;;2.20;1.20;;;;;;99974.52;;;;107813;1271;27233;-29
2022/05/22 05:31:58;;;;;;;3.60;1.40;;;;;;99974.64;;;;107782;1271;28839;-29
2022/05/22 05:34:25;;;;;;;2.40;1.20;;;;;;99972.88;;;;107796;1271;27382;-29
2022/05/22 05:36:52;;;;;;;3.20;1.30;;;;;;99970.66;;;;107833;1271;28915;-29
2022/05/22 05:39:19;;;;;;;2.80;1.40;;;;;;99971.30;;;;107814;1271;28696;-27
2022/05/22 05:41:46;;;;;;;2.20;1.20;;;;;;99970.70;;;;107801;1271;26089;-29
2022/05/22 05:44:13;;;;;;;2.90;1.30;;;;;;99968.41;;;;107817;1271;27921;-29
2022/05/22 05:46:40;;;;;;;2.90;1.60;;;;;;99967.39;;;;107802;1271;27696;-29
2022/05/22 05:49:07;;;;;;;2.90;1.40;;;;;;99964.09;;;;107773;1271;28666;-29
2022/05/22 05:51:36;;;;;;;3.20;1.30;;;;;;99967.40;;;;107849;1271;28663;-29
2022/05/22 05:54:03;;;;;;;2.70;1.20;;;;;;99968.27;;;;107823;1271;28782;-29
2022/05/22 05:56:29;;;;;;;2.90;1.50;;;;;;99964.92;;;;107789;1271;28816;-29
2022/05/22 05:58:56;;;;;;;2.80;1.30;;;;;;99965.72;;;;107800;1273;28617;-29
2022/05/22 06:01:24;;;;;;;3.10;1.50;;;;;;99969.29;;;;107813;1271;28614;-29
2022/05/22 06:03:53;;;;;;;3.20;1.60;;;;;;99970.89;;;;107795;1273;30875;-29
2022/05/22 06:06:20;;;;;;;3.20;1.40;;;;;;99972.55;;;;107830;1271;27392;-29
2022/05/22 06:08:47;;;;;;;3.10;1.40;;;;;;99973.73;;;;107827;1271;29404;-29
2022/05/22 06:11:14;;;;;;;2.90;1.40;;;;;;99971.27;;;;107823;1271;27648;-30
2022/05/22 06:13:41;;;;;;;2.50;1.20;;;;;;99969.67;;;;107801;1271;28482;-28
2022/05/22 06:16:09;;;;;;;2.80;1.30;;;;;;99970.98;;;;107813;1271;27647;-29
2022/05/22 06:18:36;;;;;;;2.40;1.20;;;;;;99977.89;;;;107837;1271;28183;-29
2022/05/22 06:21:15;;;;;;;2.60;1.20;;;;;;99974.91;;;;107813;1271;28541;-29
2022/05/22 06:23:41;;;;;;;2.90;1.20;;;;;;99974.63;;;;107784;1271;28195;-29
2022/05/22 06:26:10;;;;;;;2.90;1.40;;;;;;99975.70;;;;107715;1272;27859;-29
2022/05/22 06:28:37;;;;;;;1.70;1.10;;;;;;99978.05;;;;107830;1271;30896;-29
2022/05/22 06:31:05;;;;;;;2.20;1.20;;;;;;99983.77;;;;107852;1271;28550;-29
2022/05/22 06:33:33;;;;;;;2.10;1.20;;;;;;99980.48;;;;107847;1271;29698;-29
2022/05/22 06:36:06;;;;;;;2.30;1.40;;;;;;99982.29;;;;107825;1271;27803;-29
2022/05/22 06:41:18;;;;;;;2.80;1.30;;;;;;99983.63;;;;107821;1271;28717;-29
2022/05/22 06:43:46;;;;;;;2.10;1.00;;;;;;99979.13;;;;107841;1271;27243;-29
2022/05/22 06:46:12;;;;;;;3.00;1.40;;;;;;99982.89;;;;107804;1271;28770;-29
2022/05/22 06:48:39;;;;;;;2.70;1.20;;;;;;99982.91;;;;107825;1271;30518;-29
2022/05/22 06:51:06;;;;;;;2.50;1.10;;;;;;99981.86;;;;107826;1271;27385;-30
2022/05/22 06:53:34;;;;;;;1.80;1.00;;;;;;99974.10;;;;107818;1271;28746;-30
2022/05/22 06:56:00;;;;;;;3.40;1.40;;;;;;99986.08;;;;107830;1273;28544;-29
2022/05/22 06:58:27;;;;;;;2.30;1.00;;;;;;99983.00;;;;107831;1271;27704;-29
2022/05/22 07:00:54;;;;;;;2.20;1.30;;;;;;99985.02;;;;107837;1271;27475;-29
2022/05/22 07:03:21;;;;;;;3.00;1.10;;;;;;99983.67;;;;107812;1271;27668;-29
2022/05/22 07:05:47;;;;;;;1.70;0.90;;;;;;99978.85;;;;107755;1271;29525;-29
2022/05/22 07:08:14;;;;;;;2.40;1.00;;;;;;99974.96;;;;107850;1271;30646;-29
2022/05/22 07:13:26;;;;;;;2.30;1.10;;;;;;99974.30;;;;107831;1271;28645;-29
2022/05/22 07:15:58;;;;;;;3.80;1.10;;;;;;99975.13;;;;107828;1270;27515;-29
2022/05/22 07:18:25;;;;;;;2.30;1.00;;;;;;99979.31;;;;107843;1271;28670;-29
2022/05/22 07:20:52;;;;;;;1.60;1.00;;;;;;99983.09;;;;107811;1272;27615;-29
2022/05/22 07:23:18;;;;;;;2.30;1.10;;;;;;99984.60;;;;107831;1271;28121;-29
2022/05/22 07:25:45;;;;;;;2.30;1.10;;;;;;99983.23;;;;107818;1271;27434;-29
2022/05/22 07:28:12;;;;;;;2.10;1.00;;;;;;99988.13;;;;107838;1271;28657;-29
2022/05/22 07:30:39;;;;;;;2.00;1.10;;;;;;99984.95;;;;107815;1271;27362;-29
2022/05/22 07:33:05;;;;;;;2.20;1.00;;;;;;99986.50;;;;107855;1271;27345;-29
2022/05/22 07:35:32;;;;;;;1.70;1.00;;;;;;99979.93;;;;107832;1271;28522;-29
2022/05/22 07:38:01;;;;;;;2.80;1.20;;;;;;99974.98;;;;107852;1271;28729;-29
2022/05/22 07:40:30;;;;;;;1.90;0.80;;;;;;99974.77;;;;107778;1271;27621;-29
2022/05/22 07:42:56;;;;;;;2.60;1.10;;;;;;99973.73;;;;107848;1271;28610;-29
2022/05/22 07:45:24;;;;;;;1.80;1.00;;;;;;99975.50;;;;107829;1271;26022;-30
2022/05/22 07:47:52;;;;;;;2.90;0.90;;;;;;99975.80;;;;107821;1271;28151;-29
2022/05/22 07:50:21;;;;;;;2.20;1.00;;;;;;99984.58;;;;107810;1271;28680;-29
2022/05/22 07:52:49;;;;;;;2.00;1.00;;;;;;99986.14;;;;107830;1271;28729;-29
2022/05/22 07:55:18;;;;;;;1.50;0.90;;;;;;99982.73;;;;107849;1271;30659;-29
2022/05/22 07:57:51;;;;;;;2.30;1.00;;;;;;99979.31;;;;107816;1271;26060;-29
2022/05/22 08:00:20;;;;;;;2.10;0.80;;;;;;99980.40;;;;107835;1271;28472;-29
2022/05/22 08:02:48;;;;;;;1.20;0.80;;;;;;99983.08;;;;107866;1271;27398;-29
2022/05/22 08:05:17;;;;;;;1.70;0.80;;;;;;99982.82;;;;107869;1271;30706;-29
2022/05/22 08:07:44;;;;;;;1.90;0.90;;;;;;99979.36;;;;107851;1271;28665;-29
2022/05/22 08:10:13;;;;;;;1.20;0.80;;;;;;99977.98;;;;107849;1271;31041;-29
2022/05/22 08:12:44;;;;;;;2.60;1.00;;;;;;99978.92;;;;107848;1271;28170;-29
2022/05/22 08:15:14;;;;;;;2.60;1.00;;;;;;99980.21;;;;107891;1271;28718;-29
2022/05/22 08:17:40;;;;;;;2.00;0.90;;;;;;99989.48;;;;107829;1271;28405;-29
2022/05/22 08:20:12;;;;;;;2.20;1.00;;;;;;99987.56;;;;107819;1271;28708;-31
2022/05/22 08:22:46;;;;;;;5.90;1.40;;;;;;99993.45;;;;107858;1271;29337;-31
2022/05/22 08:25:17;;;;;;;6.90;1.40;;;;;;99987.11;;;;107782;1271;28861;-31
2022/05/22 08:27:44;;;;;;;3.90;1.20;;;;;;99987.91;;;;107837;1271;27599;-29
2022/05/22 08:30:14;;;;;;;4.60;1.20;;;;;;99991.73;;;;107815;1271;30787;-30
2022/05/22 08:32:43;;;;;;;4.80;1.40;;;;;;99987.30;;;;107852;1271;27385;-29
2022/05/22 08:35:15;;;;;;;4.60;1.40;;;;;;99982.71;;;;107852;1271;28749;-29
2022/05/22 08:37:43;;;;;;;3.60;1.00;;;;;;99976.73;;;;107833;1271;30520;-29
2022/05/22 08:40:13;;;;;;;2.90;0.90;;;;;;99966.98;;;;107867;1271;30923;-29
2022/05/22 08:42:46;;;;;;;4.70;1.20;;;;;;99961.23;;;;107850;1271;28546;-29
2022/05/22 08:45:25;;;;;;;3.40;1.00;;;;;;99963.62;;;;107742;1271;28656;-29
2022/05/22 08:48:03;;;;;;;2.60;1.00;;;;;;99963.22;;;;107852;1271;27910;-29
2022/05/22 08:50:30;;;;;;;3.20;1.00;;;;;;99966.02;;;;107822;1271;28797;-30
2022/05/22 08:53:06;;;;;;;2.10;0.80;;;;;;99973.31;;;;107835;1271;28686;-30
2022/05/22 08:58:59;;;;;;;3.10;0.90;;;;;;99970.61;;;;107830;1271;28677;-30
2022/05/22 09:02:08;;;;;;;3.60;1.00;;;;;;99962.67;;;;107813;1271;27803;-30
2022/05/22 09:04:47;;;;;;;3.30;1.10;;;;;;99964.42;;;;107824;1271;28725;-30
2022/05/22 09:07:37;;;;;;;2.60;1.00;;;;;;99972.05;;;;107821;1271;28753;-28
2022/05/22 09:10:48;;;;;;;4.30;1.10;;;;;;99972.14;;;;107827;1271;27529;-30
2022/05/22 09:13:39;;;;;;;2.00;0.80;;;;;;99976.86;;;;107786;1271;30920;-30
2022/05/22 09:16:35;;;;;;;2.90;1.10;;;;;;99984.48;;;;107814;1271;26167;-30
2022/05/22 09:19:19;;;;;;;1.90;0.70;;;;;;99977.08;;;;107808;1271;30280;-30
2022/05/22 09:22:13;;;;;;;3.60;1.10;;;;;;99970.45;;;;107804;1271;28659;-30
2022/05/22 09:25:28;;;;;;;2.20;1.00;;;;;;99962.48;;;;107810;1271;27211;-30
2022/05/22 09:28:02;;;;;;;;;;;;;;99971.35;;;;107804;1271;27713;-30
2022/05/22 09:30:38;;;;;;;3.00;0.90;;;;;;99967.59;;;;107820;1271;27301;-30
2022/05/22 09:33:20;;;;;;;2.50;0.80;;;;;;99970.62;;;;107783;1271;30196;-29
2022/05/22 09:36:00;;;;;;;2.40;0.80;;;;;;99966.04;;;;107819;1271;28576;-30
2022/05/22 09:38:55;;;;;;;1.90;0.90;;;;;;99963.23;;;;107802;1271;30686;-30
2022/05/22 09:41:54;;;;;;;2.80;1.10;;;;;;99967.19;;;;107806;1271;28568;-30
2022/05/22 09:44:36;;;;;;;2.70;0.90;;;;;;99980.46;;;;107730;1272;27552;-30
2022/05/22 09:47:38;;;;;;;2.10;1.00;;;;;;99980.60;;;;107755;1271;28651;-30
2022/05/22 09:50:34;;;;;;;2.00;0.90;;;;;;99981.34;;;;107782;1271;28752;-30
2022/05/22 09:53:30;;;;;;;2.90;0.90;;;;;;99977.98;;;;107815;1271;28694;-31
2022/05/22 09:56:17;;;;;;;3.20;1.00;;;;;;99974.87;;;;107807;1271;28839;-30
2022/05/22 09:59:17;;;;;;;3.00;1.10;;;;;;99961.27;;;;107805;1271;28573;-30
2022/05/22 10:01:45;;;;;;;4.10;1.10;;;;;;99960.29;;;;107612;1273;29679;-30
2022/05/22 10:04:52;;;;;;;1.50;0.80;;;;;;99957.48;;;;107827;1270;27229;-30
2022/05/22 10:07:55;;;;;;;3.70;1.20;;;;;;99958.60;;;;107812;1271;28681;-30
2022/05/22 10:10:40;;;;;;;2.60;0.90;;;;;;99964.77;;;;107771;1271;28670;-30
2022/05/22 10:13:22;;;;;;;2.90;1.00;;;;;;99970.72;;;;107804;1271;26119;-30
2022/05/22 10:16:40;;;;;;;1.60;0.70;;;;;;99972.15;;;;107796;1271;30870;-30
2022/05/22 10:19:20;;;;;;;3.00;1.00;;;;;;99974.67;;;;107790;1271;28668;-30
2022/05/22 10:22:09;;;;;;;2.20;1.00;;;;;;99971.65;;;;107816;1271;28536;-30
2022/05/22 10:24:55;;;;;;;1.50;0.80;;;;;;99974.81;;;;107800;1271;28732;-30
2022/05/22 10:27:50;;;;;;;2.50;0.80;;;;;;99971.27;;;;107823;1271;27731;-30
2022/05/22 10:30:49;;;;;;;3.00;0.90;;;;;;99974.31;;;;107810;1271;29727;-30
2022/05/22 10:33:32;;;;;;;4.40;1.20;;;;;;99973.18;;;;107807;1271;28585;-30
2022/05/22 10:36:07;;;;;;;;;;;;;;99976.42;;;;107806;1271;26121;-30
2022/05/22 10:38:54;;;;;;;3.30;1.20;;;;;;99981.86;;;;107785;1271;28633;-30
2022/05/22 10:44:17;;;;;;;3.10;0.90;;;;;;99981.32;;;;107786;1271;29865;-30
2022/05/22 10:46:52;;;;;;;3.70;1.30;;;;;;99982.75;;;;107819;1271;28628;-30
2022/05/22 10:49:34;;;;;;;3.40;1.00;;;;;;99981.73;;;;107811;1271;28649;-30
2022/05/22 10:52:03;;;;;;;3.90;1.30;;;;;;99984.23;;;;107795;1271;28753;-30
2022/05/22 10:54:46;;;;;;;4.00;1.40;;;;;;99978.72;;;;107817;1271;27905;-29
2022/05/22 10:57:18;;;;;;;3.80;1.40;;;;;;99985.66;;;;107824;1271;29974;-29
2022/05/22 10:59:46;;;;;;;5.00;1.50;;;;;;99985.54;;;;107802;1271;28761;-29
2022/05/22 11:02:30;;;;;;;3.90;1.30;;;;;;99983.15;;;;107826;1271;29550;-30
2022/05/22 11:04:58;;;;;;;2.50;1.10;;;;;;99982.46;;;;107816;1271;28648;-29
2022/05/22 11:07:44;;;;;;;3.40;1.20;;;;;;99980.21;;;;107826;1273;28645;-29
2022/05/22 11:10:33;;;;;;;2.60;1.00;;;;;;99981.53;;;;107761;1271;27434;-30
2022/05/22 11:13:11;;;;;;;4.10;1.20;;;;;;99980.02;;;;107826;1271;28578;-30
2022/05/22 11:15:42;;;;;;;3.90;1.30;;;;;;99980.08;;;;107833;1271;28455;-29
2022/05/22 11:18:24;;;;;;;3.60;1.30;;;;;;99981.31;;;;107823;1271;27804;-30
2022/05/22 11:21:29;;;;;;;3.10;1.00;;;;;;99978.56;;;;107844;1271;28587;-30
2022/05/22 11:24:54;;;;;;;3.80;1.30;;;;;;99982.38;;;;107817;1273;28975;-30
2022/05/22 11:28:07;;;;;;;3.40;1.30;;;;;;99985.48;;;;107511;1272;28629;-31
2022/05/22 11:31:05;;;;;;;2.10;1.00;;;;;;99981.09;;;;107822;1271;30790;-30
2022/05/22 11:33:51;;;;;;;3.00;1.10;;;;;;99984.23;;;;107794;1271;28678;-30
2022/05/22 11:36:59;;;;;;;4.40;1.60;;;;;;99985.08;;;;107822;1271;27541;-30
2022/05/22 11:40:04;;;;;;;2.70;1.00;;;;;;99985.14;;;;107783;1271;29323;-30
2022/05/22 11:42:33;;;;;;;2.70;1.10;;;;;;99991.52;;;;107792;1271;28630;-30
2022/05/22 11:45:11;;;;;;;3.40;1.30;;;;;;99991.50;;;;107782;1271;30734;-30
2022/05/22 11:47:52;;;;;;;3.80;1.40;;;;;;99993.60;;;;107800;1271;28509;-30
2022/05/22 11:50:31;;;;;;;3.30;1.20;;;;;;99994.60;;;;107825;1271;28764;-30
2022/05/22 11:53:52;;;;;;;4.50;1.40;;;;;;99994.61;;;;107800;1271;28677;-31
2022/05/22 11:56:46;;;;;;;4.70;1.30;;;;;;99999.55;;;;107770;1272;27365;-31
2022/05/22 12:00:04;;;;;;;3.30;1.20;;;;;;100000.03;;;;107797;1271;30716;-31
2022/05/22 12:03:11;;;;;;;3.40;1.20;;;;;;99996.02;;;;107734;1271;29229;-31
2022/05/22 12:06:05;;;;;;;4.60;1.50;;;;;;99998.06;;;;107779;1271;26034;-33
2022/05/22 12:09:08;;;;;;;3.60;1.10;;;;;;100005.67;;;;107794;1271;28786;-33
2022/05/22 12:12:15;;;;;;;3.40;1.00;;;;;;100003.99;;;;107780;1273;30829;-32
2022/05/22 12:15:06;;;;;;;4.10;1.30;;;;;;100004.86;;;;107797;1271;28670;-33
2022/05/22 12:17:44;;;;;;;2.80;1.10;;;;;;100004.33;;;;107793;1271;27386;-32
2022/05/22 12:20:39;;;;;;;3.30;1.30;;;;;;100002.79;;;;107829;1271;30661;-32
2022/05/22 12:23:15;;;;;;;3.90;1.30;;;;;;100002.70;;;;107667;1271;28535;-32
2022/05/22 12:25:48;;;;;;;4.00;1.50;;;;;;100003.36;;;;107786;1271;28505;-32
2022/05/22 12:28:50;;;;;;;4.10;1.30;;;;;;100006.89;;;;107797;1271;28705;-32
2022/05/22 12:31:27;;;;;;;4.20;1.20;;;;;;100019.23;;;;107765;1271;28702;-32
2022/05/22 12:34:00;;;;;;;2.70;1.10;;;;;;100015.98;;;;107785;1271;27700;-33
2022/05/22 12:36:29;;;;;;;4.20;1.20;;;;;;100018.13;;;;107777;1271;28601;-32
2022/05/22 12:39:09;;;;;;;3.30;1.10;;;;;;100018.79;;;;107810;1273;27639;-32
2022/05/22 12:42:00;;;;;;;3.30;1.10;;;;;;100029.07;;;;107828;1271;27705;-32
2022/05/22 12:44:28;;;;;;;3.20;0.90;;;;;;100021.33;;;;107810;1271;29273;-29
2022/05/22 12:46:59;;;;;;;3.80;1.20;;;;;;100021.08;;;;107841;1271;28616;-29
2022/05/22 12:49:31;;;;;;;2.00;0.90;;;;;;100027.08;;;;107823;1271;28382;-29
2022/05/22 12:52:26;;;;;;;2.60;1.10;;;;;;100025.14;;;;107825;1271;27714;-29
2022/05/22 12:55:02;;;;;;;3.10;1.40;;;;;;100026.60;;;;107824;1271;27331;-29
2022/05/22 12:57:29;;;;;;;2.40;1.10;;;;;;100028.00;;;;107819;1271;27366;-29
2022/05/22 13:00:17;;;;;;;2.80;1.10;;;;;;100028.68;;;;107770;1271;27837;-29
2022/05/22 13:02:48;;;;;;;3.40;1.10;;;;;;100031.73;;;;107801;1273;28929;-29
2022/05/22 13:05:22;;;;;;;3.80;1.10;;;;;;100032.76;;;;107779;1271;28656;-29
2022/05/22 13:07:49;;;;;;;3.40;1.10;;;;;;100032.12;;;;107786;1271;28676;-29
2022/05/22 13:10:20;;;;;;;2.50;1.00;;;;;;100024.04;;;;107763;1271;28739;-29
2022/05/22 13:13:01;;;;;;;2.10;0.90;;;;;;100026.42;;;;107803;1271;27661;-30
2022/05/22 13:15:30;;;;;;;2.40;1.10;;;;;;100028.49;;;;107786;1271;28804;-29
2022/05/22 13:18:12;;;;;;;2.20;0.90;;;;;;100029.39;;;;107793;1271;30880;-29
2022/05/22 13:20:38;;;;;;;3.00;1.10;;;;;;100031.30;;;;107804;1272;30581;-29
2022/05/22 13:23:10;;;;;;;3.00;1.00;;;;;;100032.61;;;;107788;1272;30867;-29
2022/05/22 13:25:43;;;;;;;2.50;0.90;;;;;;100038.04;;;;107634;1271;222948;-29
2022/05/22 13:28:32;;;;;;;2.90;1.00;;;;;;100037.73;;;;107795;1271;30971;-29
2022/05/22 13:31:08;;;;;;;2.90;1.30;;;;;;100039.54;;;;107794;1271;28598;-30
2022/05/22 13:33:45;;;;;;;3.10;1.30;;;;;;100040.45;;;;107764;1273;27592;-29
2022/05/22 13:36:25;;;;;;;2.90;1.10;;;;;;100045.71;;;;107818;1272;28692;-30
2022/05/22 13:38:58;;;;;;;3.60;1.30;;;;;;100043.89;;;;107817;1271;26235;-30
2022/05/22 13:42:10;;;;;;;4.80;1.00;;;;;;100041.39;;;;107794;1271;28806;-30
2022/05/22 13:45:23;;;;;;;3.20;1.00;;;;;;100047.31;;;;107801;1271;26771;-32
2022/05/22 13:48:27;;;;;;;3.50;1.10;;;;;;100045.61;;;;107810;1271;27378;-32
2022/05/22 13:54:51;;;;;;;2.40;0.90;;;;;;100052.33;;;;107791;1271;28033;-32